createdAt,value
2023-04-24T00:00:35.139Z,15.23
2023-04-24T00:03:23.243Z,16.02
2023-04-24T00:05:52.163Z,15.70
2023-04-24T00:08:19.735Z,16.58
2023-04-24T00:10:47.962Z,14.93
2023-04-24T00:13:15.454Z,15.27
2023-04-24T00:15:42.920Z,15.77
2023-04-24T00:18:10.392Z,16.65
2023-04-24T00:20:38.525Z,15.60
2023-04-24T00:23:05.925Z,16.33
2023-04-24T00:25:33.631Z,14.38
2023-04-24T00:28:01.258Z,15.38
2023-04-24T00:30:30.305Z,16.15
2023-04-24T00:32:58.583Z,15.82
2023-04-24T00:35:27.021Z,14.73
2023-04-24T00:37:54.485Z,15.30
2023-04-24T00:40:22.244Z,16.08
2023-04-24T00:42:50.033Z,15.75
2023-04-24T00:45:18.141Z,16.20
2023-04-24T00:47:47.845Z,16.67
2023-04-24T00:50:16.117Z,14.93
2023-04-24T00:52:43.496Z,15.25
2023-04-24T00:55:13.213Z,16.25
2023-04-24T00:57:40.774Z,16.00
2023-04-24T01:00:11.462Z,15.18
2023-04-24T01:02:47.135Z,16.30
2023-04-24T01:05:16.238Z,15.52
2023-04-24T01:07:46.931Z,15.85
2023-04-24T01:10:16.118Z,16.10
2023-04-24T01:12:43.355Z,14.73
2023-04-24T01:15:13.920Z,14.90
2023-04-24T01:17:43.546Z,15.95
2023-04-24T01:20:11.795Z,14.90
2023-04-24T01:22:39.330Z,15.55
2023-04-24T01:25:07.465Z,15.88
2023-04-24T01:27:34.876Z,15.07
2023-04-24T01:30:02.925Z,15.00
2023-04-24T01:32:32.438Z,16.48
2023-04-24T01:35:00.234Z,15.77
2023-04-24T01:37:27.934Z,14.90
2023-04-24T01:39:55.524Z,15.50
2023-04-24T01:42:23.331Z,16.48
2023-04-24T01:44:52.236Z,14.00
2023-04-24T01:47:19.790Z,14.57
2023-04-24T01:49:49.009Z,15.38
2023-04-24T01:52:17.354Z,13.55
2023-04-24T01:54:45.897Z,14.32
2023-04-24T01:57:15.791Z,14.30
2023-04-24T01:59:45.201Z,13.50
2023-04-24T02:02:14.657Z,14.38
2023-04-24T02:04:42.285Z,14.38
2023-04-24T02:07:09.732Z,12.55
2023-04-24T02:09:37.400Z,13.90
2023-04-24T02:12:04.909Z,14.20
2023-04-24T02:14:32.653Z,13.90
2023-04-24T02:16:59.892Z,13.50
2023-04-24T02:19:27.875Z,14.15
2023-04-24T02:21:55.078Z,14.43
2023-04-24T02:24:22.816Z,14.30
2023-04-24T02:26:50.242Z,14.65
2023-04-24T02:29:17.752Z,13.57
2023-04-24T02:31:50.485Z,13.55
2023-04-24T02:34:18.445Z,14.05
2023-04-24T02:36:45.712Z,12.75
2023-04-24T02:39:14.514Z,12.48
2023-04-24T02:41:41.908Z,13.02
2023-04-24T02:44:10.317Z,13.07
2023-04-24T02:46:37.821Z,12.52
2023-04-24T02:49:05.444Z,11.95
2023-04-24T02:51:32.908Z,12.57
2023-04-24T02:54:00.803Z,12.75
2023-04-24T02:56:28.396Z,12.52
2023-04-24T02:58:57.973Z,11.57
2023-04-24T03:01:26.298Z,11.48
2023-04-24T03:03:54.020Z,12.73
2023-04-24T03:06:22.593Z,11.80
2023-04-24T03:08:50.269Z,11.50
2023-04-24T03:11:17.624Z,11.85
2023-04-24T03:13:45.516Z,12.85
2023-04-24T03:16:13.168Z,11.57
2023-04-24T03:18:40.743Z,12.82
2023-04-24T03:21:09.538Z,12.10
2023-04-24T03:23:37.389Z,13.05
2023-04-24T03:26:04.950Z,12.20
2023-04-24T03:28:34.026Z,12.80
2023-04-24T03:31:05.018Z,13.30
2023-04-24T03:33:37.208Z,12.60
2023-04-24T03:36:06.111Z,12.70
2023-04-24T03:38:40.652Z,12.55
2023-04-24T03:41:31.231Z,12.85
2023-04-24T03:44:11.032Z,14.05
2023-04-24T03:46:39.522Z,12.23
2023-04-24T03:49:07.982Z,15.20
2023-04-24T03:51:38.695Z,14.15
2023-04-24T03:54:27.487Z,13.35
2023-04-24T03:56:55.100Z,14.05
2023-04-24T03:59:23.291Z,13.75
2023-04-24T04:02:03.072Z,13.38
2023-04-24T04:04:30.826Z,13.65
2023-04-24T04:07:02.130Z,14.45
2023-04-24T04:09:30.329Z,15.40
2023-04-24T04:11:57.794Z,13.20
2023-04-24T04:14:25.589Z,14.48
2023-04-24T04:16:54.885Z,13.32
2023-04-24T04:19:22.641Z,12.45
2023-04-24T04:21:54.090Z,12.35
2023-04-24T04:24:29.617Z,14.15
2023-04-24T04:26:59.251Z,13.15
2023-04-24T04:29:32.390Z,10.80
2023-04-24T04:32:00.584Z,13.10
2023-04-24T04:34:28.795Z,10.93
2023-04-24T04:36:57.483Z,11.32
2023-04-24T04:39:38.145Z,10.80
2023-04-24T04:42:09.229Z,10.55
2023-04-24T04:44:42.518Z,11.15
2023-04-24T04:47:14.335Z,10.40
2023-04-24T04:49:44.385Z,10.18
2023-04-24T04:52:21.096Z,10.10
2023-04-24T04:57:21.573Z,9.88
2023-04-24T04:59:49.972Z,10.40
2023-04-24T05:02:27.510Z,9.68
2023-04-24T05:04:55.761Z,10.38
2023-04-24T05:07:23.228Z,8.98
2023-04-24T05:09:53.623Z,9.32
2023-04-24T05:12:21.141Z,8.98
2023-04-24T05:14:53.274Z,10.20
2023-04-24T05:17:20.864Z,11.07
2023-04-24T05:19:49.270Z,9.32
2023-04-24T05:22:19.525Z,9.52
2023-04-24T05:24:52.021Z,10.35
2023-04-24T05:27:33.905Z,10.25
2023-04-24T05:30:04.459Z,8.88
2023-04-24T05:32:32.040Z,9.75
2023-04-24T05:35:01.120Z,8.90
2023-04-24T05:37:28.752Z,10.05
2023-04-24T05:39:56.770Z,10.30
2023-04-24T05:42:24.417Z,8.93
2023-04-24T05:44:53.688Z,9.05
2023-04-24T05:47:23.020Z,8.50
2023-04-24T05:49:52.022Z,8.07
2023-04-24T05:52:19.194Z,8.45
2023-04-24T05:54:47.302Z,7.32
2023-04-24T05:59:55.577Z,7.05
2023-04-24T06:02:23.956Z,7.43
2023-04-24T06:04:54.081Z,6.65
2023-04-24T06:07:22.283Z,6.97
2023-04-24T06:09:51.280Z,6.05
2023-04-24T06:12:18.727Z,7.10
2023-04-24T06:15:01.463Z,6.30
2023-04-24T06:17:47.751Z,6.47
2023-04-24T06:20:17.353Z,5.25
2023-04-24T06:22:44.726Z,5.65
2023-04-24T06:25:12.814Z,6.30
2023-04-24T06:27:40.804Z,5.88
2023-04-24T06:30:10.468Z,6.70
2023-04-24T06:32:37.766Z,5.28
2023-04-24T06:35:05.830Z,5.82
2023-04-24T06:37:33.302Z,6.00
2023-04-24T06:40:00.860Z,5.43
2023-04-24T06:42:28.203Z,4.15
2023-04-24T06:44:56.963Z,4.07
2023-04-24T06:47:24.275Z,5.22
2023-04-24T06:49:53.555Z,4.38
2023-04-24T06:52:20.913Z,4.40
2023-04-24T06:54:48.890Z,4.18
2023-04-24T06:57:17.280Z,4.13
2023-04-24T06:59:45.238Z,4.38
2023-04-24T07:02:12.697Z,4.45
2023-04-24T07:04:41.513Z,5.10
2023-04-24T07:07:10.594Z,4.22
2023-04-24T07:09:39.813Z,4.47
2023-04-24T07:12:08.897Z,4.05
2023-04-24T07:14:36.812Z,4.10
2023-04-24T07:17:07.342Z,3.85
2023-04-24T07:19:36.736Z,4.47
2023-04-24T07:22:04.676Z,3.65
2023-04-24T07:24:35.761Z,3.95
2023-04-24T07:27:03.195Z,4.63
2023-04-24T07:29:30.967Z,4.03
2023-04-24T07:31:58.152Z,4.40
2023-04-24T07:34:25.884Z,3.97
2023-04-24T07:36:53.472Z,3.35
2023-04-24T07:39:21.238Z,4.20
2023-04-24T07:41:51.848Z,4.20
2023-04-24T07:44:19.826Z,3.70
2023-04-24T07:46:47.570Z,4.60
2023-04-24T07:49:17.104Z,5.15
2023-04-24T07:51:46.969Z,3.67
2023-04-24T07:54:15.231Z,4.05
2023-04-24T07:56:44.053Z,3.67
2023-04-24T07:59:12.306Z,4.75
2023-04-24T08:01:39.937Z,4.00
2023-04-24T08:04:08.332Z,4.10
2023-04-24T08:06:36.900Z,4.80
2023-04-24T08:09:05.199Z,3.65
2023-04-24T08:11:34.421Z,3.40
2023-04-24T08:14:02.747Z,3.67
2023-04-24T08:16:30.588Z,3.30
2023-04-24T08:18:58.900Z,4.10
2023-04-24T08:21:28.236Z,3.50
2023-04-24T08:23:56.378Z,4.00
2023-04-24T08:26:24.414Z,3.55
2023-04-24T08:28:52.707Z,4.00
2023-04-24T08:31:20.347Z,3.17
2023-04-24T08:33:49.739Z,3.47
2023-04-24T08:36:17.344Z,3.33
2023-04-24T08:38:47.456Z,3.53
2023-04-24T08:41:16.997Z,3.35
2023-04-24T08:43:45.626Z,2.95
2023-04-24T08:46:14.693Z,3.45
2023-04-24T08:48:42.882Z,3.63
2023-04-24T08:51:11.024Z,3.38
2023-04-24T08:53:38.992Z,3.03
2023-04-24T08:56:07.295Z,3.63
2023-04-24T08:58:35.505Z,3.90
2023-04-24T09:01:03.812Z,2.90
2023-04-24T09:03:33.652Z,3.58
2023-04-24T09:06:01.942Z,3.45
2023-04-24T09:08:29.983Z,3.50
2023-04-24T09:10:59.466Z,3.72
2023-04-24T09:13:28.334Z,3.60
2023-04-24T09:15:58.476Z,3.25
2023-04-24T09:18:27.595Z,2.85
2023-04-24T09:21:05.782Z,3.40
2023-04-24T09:23:34.409Z,3.65
2023-04-24T09:26:02.997Z,3.78
2023-04-24T09:28:31.782Z,3.92
2023-04-24T09:31:14.123Z,3.55
2023-04-24T09:33:42.139Z,3.15
2023-04-24T09:36:11.109Z,3.63
2023-04-24T09:38:39.434Z,2.95
2023-04-24T09:41:08.491Z,4.00
2023-04-24T09:43:37.244Z,3.50
2023-04-24T09:46:10.742Z,2.97
2023-04-24T09:48:39.516Z,2.90
2023-04-24T09:51:11.506Z,2.83
2023-04-24T09:53:42.475Z,2.80
2023-04-24T09:56:14.663Z,3.25
2023-04-24T09:58:42.650Z,3.25
2023-04-24T10:01:10.674Z,2.90
2023-04-24T10:03:38.870Z,3.05
2023-04-24T10:06:09.962Z,3.20
2023-04-24T10:08:38.941Z,3.58
2023-04-24T10:11:06.826Z,3.22
2023-04-24T10:13:34.779Z,3.40
2023-04-24T10:16:02.782Z,3.75
2023-04-24T10:18:31.058Z,3.75
2023-04-24T10:20:59.280Z,3.30
2023-04-24T10:23:27.796Z,2.95
2023-04-24T10:25:55.695Z,4.00
2023-04-24T10:28:24.351Z,3.05
2023-04-24T10:30:53.128Z,3.15
2023-04-24T10:33:21.292Z,3.70
2023-04-24T10:35:50.594Z,2.63
2023-04-24T10:38:25.168Z,2.67
2023-04-24T10:40:53.343Z,3.05
2023-04-24T10:43:21.514Z,3.38
2023-04-24T10:46:18.078Z,3.22
2023-04-24T10:48:53.688Z,2.67
2023-04-24T10:51:23.526Z,2.88
2023-04-24T10:53:54.302Z,2.92
2023-04-24T10:56:23.819Z,4.05
2023-04-24T10:58:53.620Z,2.92
2023-04-24T11:01:26.383Z,3.40
2023-04-24T11:03:58.388Z,3.13
2023-04-24T11:06:33.149Z,2.97
2023-04-24T11:09:08.641Z,3.03
2023-04-24T11:11:38.197Z,4.55
2023-04-24T11:14:07.918Z,2.88
2023-04-24T11:16:36.310Z,2.83
2023-04-24T11:19:06.482Z,2.65
2023-04-24T11:21:42.213Z,3.28
2023-04-24T11:24:28.625Z,2.90
2023-04-24T11:26:58.082Z,2.72
2023-04-24T11:29:40.534Z,3.03
2023-04-24T11:32:21.204Z,2.50
2023-04-24T11:34:52.760Z,2.85
2023-04-24T11:37:20.725Z,2.92
2023-04-24T11:39:48.802Z,3.40
2023-04-24T11:42:17.753Z,2.45
2023-04-24T11:44:48.478Z,2.75
2023-04-24T11:47:16.356Z,3.05
2023-04-24T11:49:44.953Z,3.03
2023-04-24T11:52:12.835Z,2.50
2023-04-24T11:54:48.153Z,2.90
2023-04-24T11:57:15.868Z,3.30
2023-04-24T11:59:44.464Z,2.58
2023-04-24T12:02:21.970Z,2.80
2023-04-24T12:04:50.553Z,2.30
2023-04-24T12:07:19.029Z,2.50
2023-04-24T12:09:49.738Z,2.95
2023-04-24T12:12:19.397Z,2.80
2023-04-24T12:14:52.786Z,2.90
2023-04-24T12:17:26.905Z,2.85
2023-04-24T12:19:59.604Z,2.90
2023-04-24T12:22:27.603Z,3.03
2023-04-24T12:25:01.561Z,2.70
2023-04-24T12:27:33.792Z,2.90
2023-04-24T12:30:03.194Z,2.92
2023-04-24T12:32:31.075Z,2.67
2023-04-24T12:34:59.633Z,3.30
2023-04-24T12:37:28.172Z,4.10
2023-04-24T12:40:01.897Z,5.10
2023-04-24T12:42:30.420Z,2.65
2023-04-24T12:45:00.323Z,2.88
2023-04-24T12:47:29.111Z,2.42
2023-04-24T12:49:58.284Z,2.78
2023-04-24T12:52:27.039Z,2.65
2023-04-24T12:54:56.277Z,2.55
2023-04-24T12:57:25.911Z,3.00
2023-04-24T12:59:56.681Z,3.00
2023-04-24T13:02:25.756Z,2.72
2023-04-24T13:04:55.629Z,2.45
2023-04-24T13:07:23.422Z,2.38
2023-04-24T13:09:53.460Z,2.35
2023-04-24T13:12:21.393Z,2.83
2023-04-24T13:14:49.481Z,2.60
2023-04-24T13:17:17.524Z,2.53
2023-04-24T13:19:49.397Z,2.20
2023-04-24T13:22:18.339Z,2.30
2023-04-24T13:24:46.727Z,2.33
2023-04-24T13:27:14.763Z,2.33
2023-04-24T13:29:42.630Z,2.40
2023-04-24T13:32:10.918Z,2.35
2023-04-24T13:34:39.178Z,2.30
2023-04-24T13:37:07.040Z,2.05
2023-04-24T13:39:36.288Z,2.15
2023-04-24T13:42:05.267Z,2.22
2023-04-24T13:44:33.696Z,1.98
2023-04-24T13:47:01.474Z,3.30
2023-04-24T13:49:30.562Z,3.28
2023-04-24T13:51:58.130Z,2.50
2023-04-24T13:54:27.196Z,2.63
2023-04-24T13:56:54.921Z,2.65
2023-04-24T13:59:22.803Z,2.33
2023-04-24T14:01:50.779Z,2.40
2023-04-24T14:04:18.934Z,2.88
2023-04-24T14:06:46.872Z,2.80
2023-04-24T14:09:14.938Z,3.40
2023-04-24T14:11:42.674Z,3.53
2023-04-24T14:14:10.891Z,3.08
2023-04-24T14:16:38.373Z,3.35
2023-04-24T14:19:07.257Z,3.72
2023-04-24T14:21:34.997Z,3.00
2023-04-24T14:24:02.772Z,3.13
2023-04-24T14:26:30.742Z,3.22
2023-04-24T14:29:11.720Z,2.95
2023-04-24T14:31:42.264Z,2.97
2023-04-24T14:34:10.405Z,3.17
2023-04-24T14:36:39.005Z,3.30
2023-04-24T14:39:08.366Z,3.17
2023-04-24T14:41:37.087Z,2.80
2023-04-24T14:44:06.154Z,3.20
2023-04-24T14:46:33.896Z,3.40
2023-04-24T14:49:01.502Z,3.92
2023-04-24T14:51:29.246Z,3.92
2023-04-24T14:53:57.532Z,2.85
2023-04-24T14:56:27.525Z,3.88
2023-04-24T14:58:55.858Z,3.17
2023-04-24T15:01:25.452Z,4.20
2023-04-24T15:03:54.186Z,3.85
2023-04-24T15:06:21.784Z,4.68
2023-04-24T15:08:50.729Z,3.17
2023-04-24T15:11:18.918Z,2.75
2023-04-24T15:13:47.022Z,4.30
2023-04-24T15:16:15.592Z,3.40
2023-04-24T15:18:43.568Z,3.58
2023-04-24T15:21:10.955Z,3.38
2023-04-24T15:23:38.430Z,2.97
2023-04-24T15:26:06.896Z,3.38
2023-04-24T15:28:35.448Z,3.65
2023-04-24T15:31:03.540Z,4.35
2023-04-24T15:33:31.376Z,4.38
2023-04-24T15:36:01.507Z,5.20
2023-04-24T15:38:29.554Z,4.93
2023-04-24T15:40:57.780Z,5.00
2023-04-24T15:43:26.178Z,4.47
2023-04-24T15:45:53.628Z,4.45
2023-04-24T15:48:21.569Z,4.25
2023-04-24T15:50:48.980Z,4.47
2023-04-24T15:53:22.510Z,5.10
2023-04-24T15:55:53.573Z,6.47
2023-04-24T15:58:21.773Z,6.20
2023-04-24T16:00:49.906Z,6.30
2023-04-24T16:03:18.116Z,5.85
2023-04-24T16:05:46.034Z,5.63
2023-04-24T16:08:15.608Z,5.85
2023-04-24T16:10:43.469Z,5.40
2023-04-24T16:13:11.197Z,4.63
2023-04-24T16:15:40.167Z,5.07
2023-04-24T16:18:07.997Z,6.57
2023-04-24T16:20:36.132Z,5.45
2023-04-24T16:23:03.851Z,6.22
2023-04-24T16:25:31.962Z,5.45
2023-04-24T16:28:00.919Z,6.05
2023-04-24T16:30:29.844Z,5.75
2023-04-24T16:32:57.831Z,5.68
2023-04-24T16:35:25.342Z,6.38
2023-04-24T16:37:55.449Z,6.82
2023-04-24T16:40:22.916Z,5.32
2023-04-24T16:42:51.524Z,5.80
2023-04-24T16:45:19.021Z,6.45
2023-04-24T16:47:46.855Z,6.20
2023-04-24T16:50:14.512Z,7.22
2023-04-24T16:52:43.532Z,7.22
2023-04-24T16:55:10.895Z,6.03
2023-04-24T16:57:38.830Z,6.40
2023-04-24T17:00:06.801Z,6.55
2023-04-24T17:02:34.897Z,6.10
2023-04-24T17:05:02.592Z,6.30
2023-04-24T17:07:31.925Z,6.43
2023-04-24T17:10:00.405Z,6.25
2023-04-24T17:12:28.310Z,6.28
2023-04-24T17:14:55.918Z,6.40
2023-04-24T17:17:25.530Z,7.10
2023-04-24T17:19:52.925Z,6.35
2023-04-24T17:22:20.384Z,7.43
2023-04-24T17:24:48.837Z,6.63
2023-04-24T17:27:16.586Z,6.50
2023-04-24T17:29:44.972Z,6.28
2023-04-24T17:32:13.032Z,6.05
2023-04-24T17:34:41.567Z,7.10
2023-04-24T17:37:09.554Z,6.97
2023-04-24T17:39:37.469Z,8.23
2023-04-24T17:42:06.298Z,7.40
2023-04-24T17:44:34.057Z,7.70
2023-04-24T17:47:02.170Z,7.40
2023-04-24T17:49:29.381Z,8.80
2023-04-24T17:51:57.001Z,11.90
2023-04-24T17:54:24.566Z,10.77
2023-04-24T17:56:55.016Z,10.40
2023-04-24T17:59:23.976Z,9.50
2023-04-24T18:01:53.371Z,10.40
2023-04-24T18:04:21.170Z,10.80
2023-04-24T18:06:51.387Z,10.02
2023-04-24T18:09:21.092Z,9.68
2023-04-24T18:11:49.887Z,9.50
2023-04-24T18:14:17.773Z,9.27
2023-04-24T18:16:46.699Z,7.82
2023-04-24T18:19:14.491Z,8.77
2023-04-24T18:21:42.143Z,10.20
2023-04-24T18:24:10.806Z,9.27
2023-04-24T18:26:38.962Z,9.63
2023-04-24T18:29:06.997Z,9.20
2023-04-24T18:31:35.084Z,9.60
2023-04-24T18:34:02.363Z,10.75
2023-04-24T18:36:30.793Z,10.57
2023-04-24T18:38:58.383Z,10.88
2023-04-24T18:41:26.379Z,10.35
2023-04-24T18:43:53.704Z,11.77
2023-04-24T18:46:21.579Z,13.02
2023-04-24T18:48:49.193Z,12.57
2023-04-24T18:51:16.946Z,12.70
2023-04-24T18:53:44.765Z,13.45
2023-04-24T18:56:13.084Z,10.32
2023-04-24T18:58:44.310Z,11.43
2023-04-24T19:01:12.397Z,10.68
2023-04-24T19:03:40.305Z,10.77
2023-04-24T19:06:09.085Z,11.40
2023-04-24T19:08:38.609Z,10.20
2023-04-24T19:11:06.368Z,11.15
2023-04-24T19:13:34.030Z,11.10
2023-04-24T19:16:02.619Z,11.32
2023-04-24T19:18:30.008Z,11.25
2023-04-24T19:20:59.829Z,9.77
2023-04-24T19:23:27.200Z,11.07
2023-04-24T19:25:54.796Z,11.20
2023-04-24T19:28:22.130Z,10.52
2023-04-24T19:30:49.786Z,11.05
2023-04-24T19:33:17.253Z,11.25
2023-04-24T19:35:44.910Z,12.02
2023-04-24T19:38:12.747Z,11.38
2023-04-24T19:40:40.797Z,11.95
2023-04-24T19:43:08.429Z,12.32
2023-04-24T19:45:37.548Z,11.88
2023-04-24T19:48:05.986Z,11.90
2023-04-24T19:50:34.867Z,12.32
2023-04-24T19:53:02.152Z,11.73
2023-04-24T19:55:30.312Z,13.10
2023-04-24T19:57:57.935Z,12.57
2023-04-24T20:00:25.605Z,13.40
2023-04-24T20:02:55.578Z,12.23
2023-04-24T20:05:23.564Z,12.82
2023-04-24T20:07:52.259Z,13.07
2023-04-24T20:10:20.455Z,13.23
2023-04-24T20:12:48.231Z,14.25
2023-04-24T20:15:16.022Z,12.15
2023-04-24T20:17:43.435Z,14.27
2023-04-24T20:20:12.689Z,13.90
2023-04-24T20:22:40.365Z,14.02
2023-04-24T20:25:13.015Z,14.98
2023-04-24T20:27:41.334Z,15.02
2023-04-24T20:30:13.358Z,15.93
2023-04-24T20:32:44.711Z,15.10
2023-04-24T20:35:12.432Z,16.85
2023-04-24T20:37:40.504Z,17.13
2023-04-24T20:40:09.987Z,17.83
2023-04-24T20:42:40.130Z,16.75
2023-04-24T20:45:08.339Z,17.15
2023-04-24T20:47:37.002Z,17.20
2023-04-24T20:50:06.320Z,16.23
2023-04-24T20:52:34.124Z,16.23
2023-04-24T20:55:03.604Z,16.45
2023-04-24T20:57:31.508Z,15.50
2023-04-24T20:59:59.098Z,16.00
2023-04-24T21:02:27.926Z,15.23
2023-04-24T21:04:55.630Z,13.80
2023-04-24T21:07:22.909Z,13.23
2023-04-24T21:09:51.257Z,13.65
2023-04-24T21:12:18.599Z,14.32
2023-04-24T21:14:46.228Z,13.15
2023-04-24T21:17:13.953Z,11.73
2023-04-24T21:19:43.118Z,12.63
2023-04-24T21:22:10.481Z,11.63
2023-04-24T21:24:38.264Z,10.40
2023-04-24T21:27:06.283Z,11.50
2023-04-24T21:29:34.502Z,10.68
2023-04-24T21:32:03.612Z,11.75
2023-04-24T21:34:31.378Z,10.05
2023-04-24T21:36:58.901Z,10.05
2023-04-24T21:39:27.648Z,9.27
2023-04-24T21:41:56.330Z,9.48
2023-04-24T21:44:24.765Z,9.18
2023-04-24T21:46:52.846Z,8.93
2023-04-24T21:49:22.034Z,8.48
2023-04-24T21:51:49.629Z,7.72
2023-04-24T21:54:17.178Z,7.28
2023-04-24T21:56:45.016Z,8.48
2023-04-24T21:59:13.246Z,9.30
2023-04-24T22:01:41.169Z,8.65
2023-04-24T22:04:10.293Z,9.98
2023-04-24T22:06:38.207Z,8.98
2023-04-24T22:09:07.648Z,7.90
2023-04-24T22:11:36.638Z,9.88
2023-04-24T22:14:04.213Z,10.98
2023-04-24T22:16:31.536Z,15.07
2023-04-24T22:18:59.327Z,13.35
2023-04-24T22:21:27.761Z,13.40
2023-04-24T22:23:55.578Z,14.68
2023-04-24T22:26:22.736Z,15.10
2023-04-24T22:28:53.246Z,12.63
2023-04-24T22:31:20.620Z,11.27
2023-04-24T22:33:48.744Z,11.95
2023-04-24T22:36:16.191Z,11.07
2023-04-24T22:38:44.168Z,11.35
2023-04-24T22:41:12.952Z,11.05
2023-04-24T22:43:40.865Z,11.27
2023-04-24T22:46:09.149Z,12.00
2023-04-24T22:48:36.877Z,11.48
2023-04-24T22:51:04.487Z,10.68
2023-04-24T22:53:32.366Z,10.45
2023-04-24T22:56:00.509Z,10.63
2023-04-24T22:58:28.391Z,10.05
2023-04-24T23:00:55.674Z,9.60
2023-04-24T23:03:23.911Z,9.75
2023-04-24T23:05:51.431Z,9.18
2023-04-24T23:08:19.040Z,10.43
2023-04-24T23:10:46.474Z,9.05
2023-04-24T23:13:13.938Z,10.70
2023-04-24T23:15:42.095Z,10.48
2023-04-24T23:18:09.692Z,9.85
2023-04-24T23:20:38.569Z,8.98
2023-04-24T23:23:06.383Z,8.07
2023-04-24T23:25:34.741Z,8.85
2023-04-24T23:28:02.274Z,7.60
2023-04-24T23:30:29.910Z,8.68
2023-04-24T23:32:57.542Z,7.55
2023-04-24T23:35:25.919Z,8.10
2023-04-24T23:37:54.633Z,8.73
2023-04-24T23:40:22.316Z,8.80
2023-04-24T23:43:03.310Z,8.38
2023-04-24T23:45:34.410Z,10.55
2023-04-24T23:48:02.236Z,8.90
2023-04-24T23:50:29.865Z,10.27
2023-04-24T23:52:57.639Z,8.32
2023-04-24T23:55:25.118Z,9.35
2023-04-24T23:57:52.616Z,8.93
